sensor_id;sensor_type;location;lat;lon;timestamp;P1;durP1;ratioP1;P2;durP2;ratioP2
53618;SDS011;68717;53.040;18.488;2024-03-02T00:00:13;83.25;;;42.60;;
53618;SDS011;68717;53.040;18.488;2024-03-02T00:00:49;80.30;;;41.10;;
53618;SDS011;68717;53.040;18.488;2024-03-02T00:01:23;80.22;;;40.78;;
53618;SDS011;68717;53.040;18.488;2024-03-02T00:01:37;77.68;;;40.67;;
53618;SDS011;68717;53.040;18.488;2024-03-02T00:01:52;79.68;;;40.80;;
53618;SDS011;68717;53.040;18.488;2024-03-02T00:02:06;79.47;;;40.20;;
53618;SDS011;68717;53.040;18.488;2024-03-02T00:02:19;77.75;;;39.83;;
53618;SDS011;68717;53.040;18.488;2024-03-02T00:02:32;80.80;;;40.55;;
53618;SDS011;68717;53.040;18.488;2024-03-02T00:02:45;83.30;;;41.15;;
53618;SDS011;68717;53.040;18.488;2024-03-02T00:02:59;81.72;;;40.83;;
53618;SDS011;68717;53.040;18.488;2024-03-02T00:03:13;81.25;;;40.83;;
53618;SDS011;68717;53.040;18.488;2024-03-02T00:03:26;81.75;;;40.78;;
53618;SDS011;68717;53.040;18.488;2024-03-02T00:03:41;77.95;;;40.65;;
53618;SDS011;68717;53.040;18.488;2024-03-02T00:03:55;76.22;;;40.63;;
53618;SDS011;68717;53.040;18.488;2024-03-02T00:04:08;79.90;;;41.42;;
53618;SDS011;68717;53.040;18.488;2024-03-02T00:04:22;81.32;;;41.35;;
53618;SDS011;68717;53.040;18.488;2024-03-02T00:04:35;79.22;;;40.95;;
53618;SDS011;68717;53.040;18.488;2024-03-02T00:04:49;80.53;;;41.17;;
53618;SDS011;68717;53.040;18.488;2024-03-02T00:05:02;81.18;;;41.20;;
53618;SDS011;68717;53.040;18.488;2024-03-02T00:05:18;80.15;;;41.42;;
53618;SDS011;68717;53.040;18.488;2024-03-02T00:05:32;81.00;;;40.78;;
53618;SDS011;68717;53.040;18.488;2024-03-02T00:05:49;77.68;;;39.92;;
53618;SDS011;68717;53.040;18.488;2024-03-02T00:06:03;77.57;;;39.97;;
53618;SDS011;68717;53.040;18.488;2024-03-02T00:06:18;80.47;;;40.60;;
53618;SDS011;68717;53.040;18.488;2024-03-02T00:06:33;77.25;;;40.60;;
53618;SDS011;68717;53.040;18.488;2024-03-02T00:06:47;78.15;;;40.72;;
53618;SDS011;68717;53.040;18.488;2024-03-02T00:07:00;82.05;;;41.75;;
53618;SDS011;68717;53.040;18.488;2024-03-02T00:07:15;85.03;;;42.00;;
53618;SDS011;68717;53.040;18.488;2024-03-02T00:07:28;84.78;;;42.13;;
53618;SDS011;68717;53.040;18.488;2024-03-02T00:07:41;84.78;;;42.28;;
53618;SDS011;68717;53.040;18.488;2024-03-02T00:07:55;83.22;;;41.65;;
53618;SDS011;68717;53.040;18.488;2024-03-02T00:08:10;80.65;;;41.30;;
53618;SDS011;68717;53.040;18.488;2024-03-02T00:08:23;80.13;;;41.70;;
53618;SDS011;68717;53.040;18.488;2024-03-02T00:08:38;80.32;;;41.58;;
53618;SDS011;68717;53.040;18.488;2024-03-02T00:08:51;77.75;;;40.75;;
53618;SDS011;68717;53.040;18.488;2024-03-02T00:09:09;75.28;;;40.42;;
53618;SDS011;68717;53.040;18.488;2024-03-02T00:09:25;77.20;;;40.10;;
53618;SDS011;68717;53.040;18.488;2024-03-02T00:09:38;77.05;;;39.92;;
53618;SDS011;68717;53.040;18.488;2024-03-02T00:09:52;76.35;;;40.13;;
53618;SDS011;68717;53.040;18.488;2024-03-02T00:10:07;76.72;;;39.63;;
53618;SDS011;68717;53.040;18.488;2024-03-02T00:10:25;76.75;;;39.60;;
53618;SDS011;68717;53.040;18.488;2024-03-02T00:10:42;78.13;;;40.83;;
53618;SDS011;68717;53.040;18.488;2024-03-02T00:10:57;80.40;;;40.20;;
53618;SDS011;68717;53.040;18.488;2024-03-02T00:11:11;80.95;;;40.03;;
53618;SDS011;68717;53.040;18.488;2024-03-02T00:11:26;78.38;;;40.15;;
53618;SDS011;68717;53.040;18.488;2024-03-02T00:11:41;78.82;;;40.67;;
53618;SDS011;68717;53.040;18.488;2024-03-02T00:12:00;80.32;;;41.25;;
53618;SDS011;68717;53.040;18.488;2024-03-02T00:12:14;78.30;;;40.58;;
53618;SDS011;68717;53.040;18.488;2024-03-02T00:12:28;79.28;;;40.70;;
53618;SDS011;68717;53.040;18.488;2024-03-02T00:12:41;78.82;;;40.83;;
53618;SDS011;68717;53.040;18.488;2024-03-02T00:12:55;77.88;;;40.55;;
53618;SDS011;68717;53.040;18.488;2024-03-02T00:13:09;77.75;;;40.53;;
53618;SDS011;68717;53.040;18.488;2024-03-02T00:13:22;78.43;;;40.55;;
53618;SDS011;68717;53.040;18.488;2024-03-02T00:13:35;78.90;;;40.35;;
53618;SDS011;68717;53.040;18.488;2024-03-02T00:13:51;79.18;;;40.30;;
53618;SDS011;68717;53.040;18.488;2024-03-02T00:14:05;76.10;;;40.33;;
53618;SDS011;68717;53.040;18.488;2024-03-02T00:14:18;75.75;;;40.60;;
53618;SDS011;68717;53.040;18.488;2024-03-02T00:14:31;75.03;;;40.58;;
53618;SDS011;68717;53.040;18.488;2024-03-02T00:14:44;78.38;;;40.30;;
53618;SDS011;68717;53.040;18.488;2024-03-02T00:14:58;80.63;;;39.80;;
53618;SDS011;68717;53.040;18.488;2024-03-02T00:15:24;80.32;;;40.55;;
53618;SDS011;68717;53.040;18.488;2024-03-02T00:15:53;74.82;;;38.53;;
53618;SDS011;68717;53.040;18.488;2024-03-02T00:16:09;73.40;;;39.35;;
53618;SDS011;68717;53.040;18.488;2024-03-02T00:16:23;76.38;;;39.58;;
53618;SDS011;68717;53.040;18.488;2024-03-02T00:16:36;77.65;;;39.40;;
53618;SDS011;68717;53.040;18.488;2024-03-02T00:16:50;73.57;;;39.42;;
53618;SDS011;68717;53.040;18.488;2024-03-02T00:17:04;72.57;;;39.17;;
53618;SDS011;68717;53.040;18.488;2024-03-02T00:17:17;74.82;;;39.33;;
53618;SDS011;68717;53.040;18.488;2024-03-02T00:17:37;76.63;;;39.85;;
53618;SDS011;68717;53.040;18.488;2024-03-02T00:17:52;74.45;;;39.33;;
53618;SDS011;68717;53.040;18.488;2024-03-02T00:18:06;72.50;;;38.78;;
53618;SDS011;68717;53.040;18.488;2024-03-02T00:18:21;74.03;;;39.63;;
53618;SDS011;68717;53.040;18.488;2024-03-02T00:18:37;76.72;;;39.58;;
53618;SDS011;68717;53.040;18.488;2024-03-02T00:18:51;75.38;;;39.50;;
53618;SDS011;68717;53.040;18.488;2024-03-02T00:19:04;73.90;;;39.42;;
53618;SDS011;68717;53.040;18.488;2024-03-02T00:19:19;74.55;;;39.28;;
53618;SDS011;68717;53.040;18.488;2024-03-02T00:19:34;76.43;;;39.80;;
53618;SDS011;68717;53.040;18.488;2024-03-02T00:19:52;76.30;;;39.35;;
53618;SDS011;68717;53.040;18.488;2024-03-02T00:20:05;74.50;;;39.25;;
53618;SDS011;68717;53.040;18.488;2024-03-02T00:20:22;73.38;;;39.25;;
53618;SDS011;68717;53.040;18.488;2024-03-02T00:20:35;75.55;;;39.55;;
53618;SDS011;68717;53.040;18.488;2024-03-02T00:20:49;75.00;;;39.08;;
53618;SDS011;68717;53.040;18.488;2024-03-02T00:21:06;75.68;;;39.13;;
53618;SDS011;68717;53.040;18.488;2024-03-02T00:21:24;78.13;;;39.97;;
53618;SDS011;68717;53.040;18.488;2024-03-02T00:21:40;75.13;;;39.10;;
53618;SDS011;68717;53.040;18.488;2024-03-02T00:21:54;73.53;;;39.10;;
53618;SDS011;68717;53.040;18.488;2024-03-02T00:22:07;76.10;;;39.33;;
53618;SDS011;68717;53.040;18.488;2024-03-02T00:22:20;76.90;;;39.47;;
53618;SDS011;68717;53.040;18.488;2024-03-02T00:22:34;74.35;;;39.53;;
53618;SDS011;68717;53.040;18.488;2024-03-02T00:22:50;75.15;;;39.80;;
53618;SDS011;68717;53.040;18.488;2024-03-02T00:23:03;77.72;;;40.17;;
53618;SDS011;68717;53.040;18.488;2024-03-02T00:23:17;77.43;;;40.00;;
53618;SDS011;68717;53.040;18.488;2024-03-02T00:23:32;76.28;;;39.70;;
53618;SDS011;68717;53.040;18.488;2024-03-02T00:23:46;75.78;;;39.45;;
53618;SDS011;68717;53.040;18.488;2024-03-02T00:24:03;76.05;;;39.33;;
53618;SDS011;68717;53.040;18.488;2024-03-02T00:24:31;78.95;;;40.78;;
53618;SDS011;68717;53.040;18.488;2024-03-02T00:24:46;74.97;;;40.08;;
53618;SDS011;68717;53.040;18.488;2024-03-02T00:24:59;72.10;;;39.35;;
53618;SDS011;68717;53.040;18.488;2024-03-02T00:25:12;74.32;;;39.45;;
53618;SDS011;68717;53.040;18.488;2024-03-02T00:25:25;74.53;;;39.10;;
53618;SDS011;68717;53.040;18.488;2024-03-02T00:25:39;73.70;;;39.25;;
53618;SDS011;68717;53.040;18.488;2024-03-02T00:25:53;75.57;;;40.28;;
53618;SDS011;68717;53.040;18.488;2024-03-02T00:26:08;76.15;;;40.50;;
53618;SDS011;68717;53.040;18.488;2024-03-02T00:26:24;74.65;;;39.25;;
53618;SDS011;68717;53.040;18.488;2024-03-02T00:26:39;78.28;;;39.67;;
53618;SDS011;68717;53.040;18.488;2024-03-02T00:26:52;79.93;;;40.72;;
53618;SDS011;68717;53.040;18.488;2024-03-02T00:27:05;78.65;;;40.60;;
53618;SDS011;68717;53.040;18.488;2024-03-02T00:27:20;77.35;;;39.50;;
53618;SDS011;68717;53.040;18.488;2024-03-02T00:27:34;74.30;;;38.15;;
53618;SDS011;68717;53.040;18.488;2024-03-02T00:27:47;76.20;;;38.45;;
53618;SDS011;68717;53.040;18.488;2024-03-02T00:28:00;76.80;;;38.33;;
53618;SDS011;68717;53.040;18.488;2024-03-02T00:28:14;75.25;;;38.63;;
53618;SDS011;68717;53.040;18.488;2024-03-02T00:28:31;77.72;;;39.45;;
53618;SDS011;68717;53.040;18.488;2024-03-02T00:28:48;74.15;;;38.53;;
53618;SDS011;68717;53.040;18.488;2024-03-02T00:29:02;74.38;;;38.40;;
53618;SDS011;68717;53.040;18.488;2024-03-02T00:29:16;80.15;;;39.28;;
53618;SDS011;68717;53.040;18.488;2024-03-02T00:29:31;77.75;;;39.10;;
53618;SDS011;68717;53.040;18.488;2024-03-02T00:29:44;73.28;;;38.70;;
53618;SDS011;68717;53.040;18.488;2024-03-02T00:29:57;72.57;;;38.25;;
53618;SDS011;68717;53.040;18.488;2024-03-02T00:30:16;74.35;;;38.60;;
53618;SDS011;68717;53.040;18.488;2024-03-02T00:31:02;71.63;;;38.83;;
53618;SDS011;68717;53.040;18.488;2024-03-02T00:31:19;70.78;;;38.67;;
53618;SDS011;68717;53.040;18.488;2024-03-02T00:31:32;72.75;;;38.97;;
53618;SDS011;68717;53.040;18.488;2024-03-02T00:31:45;75.38;;;39.53;;
53618;SDS011;68717;53.040;18.488;2024-03-02T00:32:00;74.07;;;39.10;;
53618;SDS011;68717;53.040;18.488;2024-03-02T00:32:14;70.13;;;37.80;;
53618;SDS011;68717;53.040;18.488;2024-03-02T00:32:29;70.93;;;37.60;;
53618;SDS011;68717;53.040;18.488;2024-03-02T00:32:42;70.60;;;37.58;;
53618;SDS011;68717;53.040;18.488;2024-03-02T00:32:55;73.82;;;38.25;;
53618;SDS011;68717;53.040;18.488;2024-03-02T00:33:08;76.20;;;38.13;;
53618;SDS011;68717;53.040;18.488;2024-03-02T00:33:23;75.50;;;38.17;;
53618;SDS011;68717;53.040;18.488;2024-03-02T00:33:41;74.30;;;38.65;;
53618;SDS011;68717;53.040;18.488;2024-03-02T00:33:55;73.60;;;38.20;;
53618;SDS011;68717;53.040;18.488;2024-03-02T00:34:08;71.30;;;37.88;;
53618;SDS011;68717;53.040;18.488;2024-03-02T00:34:23;70.82;;;38.30;;
53618;SDS011;68717;53.040;18.488;2024-03-02T00:34:38;72.35;;;38.08;;
53618;SDS011;68717;53.040;18.488;2024-03-02T00:34:51;72.15;;;37.38;;
53618;SDS011;68717;53.040;18.488;2024-03-02T00:35:05;72.55;;;37.42;;
53618;SDS011;68717;53.040;18.488;2024-03-02T00:35:23;72.53;;;37.63;;
53618;SDS011;68717;53.040;18.488;2024-03-02T00:35:36;72.13;;;38.00;;
53618;SDS011;68717;53.040;18.488;2024-03-02T00:35:49;73.15;;;38.35;;
53618;SDS011;68717;53.040;18.488;2024-03-02T00:36:02;72.55;;;37.83;;
53618;SDS011;68717;53.040;18.488;2024-03-02T00:36:17;70.05;;;37.30;;
53618;SDS011;68717;53.040;18.488;2024-03-02T00:36:37;72.05;;;37.92;;
53618;SDS011;68717;53.040;18.488;2024-03-02T00:36:51;73.65;;;38.15;;
53618;SDS011;68717;53.040;18.488;2024-03-02T00:37:04;72.38;;;37.53;;
53618;SDS011;68717;53.040;18.488;2024-03-02T00:37:17;72.45;;;37.83;;
53618;SDS011;68717;53.040;18.488;2024-03-02T00:37:31;73.32;;;37.85;;
53618;SDS011;68717;53.040;18.488;2024-03-02T00:37:44;75.40;;;37.90;;
53618;SDS011;68717;53.040;18.488;2024-03-02T00:37:57;74.13;;;38.60;;
53618;SDS011;68717;53.040;18.488;2024-03-02T00:38:11;72.45;;;38.28;;
53618;SDS011;68717;53.040;18.488;2024-03-02T00:38:25;70.40;;;36.83;;
53618;SDS011;68717;53.040;18.488;2024-03-02T00:38:45;70.97;;;37.28;;
53618;SDS011;68717;53.040;18.488;2024-03-02T00:39:01;72.70;;;37.33;;
53618;SDS011;68717;53.040;18.488;2024-03-02T00:39:15;72.80;;;37.38;;
53618;SDS011;68717;53.040;18.488;2024-03-02T00:39:30;72.22;;;38.00;;
53618;SDS011;68717;53.040;18.488;2024-03-02T00:39:46;74.10;;;39.00;;
53618;SDS011;68717;53.040;18.488;2024-03-02T00:40:01;73.68;;;39.13;;
53618;SDS011;68717;53.040;18.488;2024-03-02T00:40:16;71.90;;;38.28;;
53618;SDS011;68717;53.040;18.488;2024-03-02T00:40:31;74.15;;;38.58;;
53618;SDS011;68717;53.040;18.488;2024-03-02T00:40:45;73.00;;;38.60;;
53618;SDS011;68717;53.040;18.488;2024-03-02T00:40:59;72.22;;;38.58;;
53618;SDS011;68717;53.040;18.488;2024-03-02T00:41:19;73.68;;;38.53;;
53618;SDS011;68717;53.040;18.488;2024-03-02T00:41:35;72.57;;;38.08;;
53618;SDS011;68717;53.040;18.488;2024-03-02T00:41:48;71.43;;;38.10;;
53618;SDS011;68717;53.040;18.488;2024-03-02T00:42:01;72.55;;;38.05;;
53618;SDS011;68717;53.040;18.488;2024-03-02T00:42:14;75.57;;;38.38;;
53618;SDS011;68717;53.040;18.488;2024-03-02T00:42:27;74.75;;;37.92;;
53618;SDS011;68717;53.040;18.488;2024-03-02T00:42:40;76.53;;;38.58;;
53618;SDS011;68717;53.040;18.488;2024-03-02T00:42:53;73.53;;;38.72;;
53618;SDS011;68717;53.040;18.488;2024-03-02T00:43:08;70.40;;;38.05;;
53618;SDS011;68717;53.040;18.488;2024-03-02T00:43:42;74.43;;;38.35;;
53618;SDS011;68717;53.040;18.488;2024-03-02T00:43:59;76.95;;;38.50;;
53618;SDS011;68717;53.040;18.488;2024-03-02T00:44:13;76.65;;;38.15;;
53618;SDS011;68717;53.040;18.488;2024-03-02T00:44:28;75.45;;;38.38;;
53618;SDS011;68717;53.040;18.488;2024-03-02T00:44:46;74.30;;;38.88;;
53618;SDS011;68717;53.040;18.488;2024-03-02T00:45:00;72.78;;;38.33;;
53618;SDS011;68717;53.040;18.488;2024-03-02T00:45:13;73.13;;;38.47;;
53618;SDS011;68717;53.040;18.488;2024-03-02T00:45:26;73.78;;;38.85;;
53618;SDS011;68717;53.040;18.488;2024-03-02T00:45:39;75.50;;;39.78;;
53618;SDS011;68717;53.040;18.488;2024-03-02T00:45:52;78.43;;;40.13;;
53618;SDS011;68717;53.040;18.488;2024-03-02T00:46:06;76.05;;;39.60;;
53618;SDS011;68717;53.040;18.488;2024-03-02T00:46:23;74.00;;;39.22;;
53618;SDS011;68717;53.040;18.488;2024-03-02T00:46:36;74.53;;;38.63;;
53618;SDS011;68717;53.040;18.488;2024-03-02T00:46:51;72.32;;;38.08;;
53618;SDS011;68717;53.040;18.488;2024-03-02T00:47:05;70.03;;;37.67;;
53618;SDS011;68717;53.040;18.488;2024-03-02T00:47:19;70.78;;;37.25;;
53618;SDS011;68717;53.040;18.488;2024-03-02T00:47:32;72.60;;;37.88;;
53618;SDS011;68717;53.040;18.488;2024-03-02T00:47:50;71.50;;;37.60;;
53618;SDS011;68717;53.040;18.488;2024-03-02T00:48:03;69.65;;;36.97;;
53618;SDS011;68717;53.040;18.488;2024-03-02T00:48:17;68.53;;;37.08;;
53618;SDS011;68717;53.040;18.488;2024-03-02T00:48:30;70.43;;;37.58;;
53618;SDS011;68717;53.040;18.488;2024-03-02T00:48:53;70.03;;;37.45;;
53618;SDS011;68717;53.040;18.488;2024-03-02T00:49:11;71.88;;;37.42;;
53618;SDS011;68717;53.040;18.488;2024-03-02T00:49:29;67.50;;;36.75;;
53618;SDS011;68717;53.040;18.488;2024-03-02T00:49:44;67.00;;;36.70;;
53618;SDS011;68717;53.040;18.488;2024-03-02T00:49:59;67.68;;;36.63;;
53618;SDS011;68717;53.040;18.488;2024-03-02T00:50:15;69.95;;;37.08;;
53618;SDS011;68717;53.040;18.488;2024-03-02T00:50:41;69.55;;;36.50;;
53618;SDS011;68717;53.040;18.488;2024-03-02T00:50:55;71.00;;;37.05;;
53618;SDS011;68717;53.040;18.488;2024-03-02T00:51:08;69.55;;;36.60;;
53618;SDS011;68717;53.040;18.488;2024-03-02T00:51:21;67.97;;;36.45;;
53618;SDS011;68717;53.040;18.488;2024-03-02T00:51:35;70.10;;;36.80;;
53618;SDS011;68717;53.040;18.488;2024-03-02T00:51:50;72.43;;;37.15;;
53618;SDS011;68717;53.040;18.488;2024-03-02T00:52:04;72.25;;;37.72;;
53618;SDS011;68717;53.040;18.488;2024-03-02T00:52:19;69.78;;;37.65;;
53618;SDS011;68717;53.040;18.488;2024-03-02T00:52:32;67.82;;;36.50;;
53618;SDS011;68717;53.040;18.488;2024-03-02T00:52:45;67.60;;;36.33;;
53618;SDS011;68717;53.040;18.488;2024-03-02T00:53:01;68.03;;;36.78;;
53618;SDS011;68717;53.040;18.488;2024-03-02T00:53:14;69.00;;;36.92;;
53618;SDS011;68717;53.040;18.488;2024-03-02T00:53:27;73.38;;;37.55;;
53618;SDS011;68717;53.040;18.488;2024-03-02T00:53:40;74.20;;;37.90;;
53618;SDS011;68717;53.040;18.488;2024-03-02T00:53:54;69.25;;;36.88;;
53618;SDS011;68717;53.040;18.488;2024-03-02T00:54:13;67.80;;;36.67;;
53618;SDS011;68717;53.040;18.488;2024-03-02T00:54:27;67.35;;;36.17;;
53618;SDS011;68717;53.040;18.488;2024-03-02T00:54:41;66.28;;;36.58;;
53618;SDS011;68717;53.040;18.488;2024-03-02T00:54:55;68.47;;;36.92;;
53618;SDS011;68717;53.040;18.488;2024-03-02T00:55:10;71.18;;;36.88;;
53618;SDS011;68717;53.040;18.488;2024-03-02T00:55:24;70.53;;;36.65;;
53618;SDS011;68717;53.040;18.488;2024-03-02T00:55:37;67.93;;;36.28;;
53618;SDS011;68717;53.040;18.488;2024-03-02T00:55:50;66.80;;;36.03;;
53618;SDS011;68717;53.040;18.488;2024-03-02T00:56:04;69.35;;;36.65;;
53618;SDS011;68717;53.040;18.488;2024-03-02T00:56:22;68.63;;;36.33;;
53618;SDS011;68717;53.040;18.488;2024-03-02T00:56:37;66.63;;;35.95;;
53618;SDS011;68717;53.040;18.488;2024-03-02T00:56:51;66.38;;;36.22;;
53618;SDS011;68717;53.040;18.488;2024-03-02T00:57:04;65.80;;;36.60;;
53618;SDS011;68717;53.040;18.488;2024-03-02T00:57:17;67.35;;;36.97;;
53618;SDS011;68717;53.040;18.488;2024-03-02T00:57:30;69.15;;;36.92;;
53618;SDS011;68717;53.040;18.488;2024-03-02T00:57:46;67.97;;;36.00;;
53618;SDS011;68717;53.040;18.488;2024-03-02T00:58:00;68.22;;;35.58;;
53618;SDS011;68717;53.040;18.488;2024-03-02T00:58:13;67.03;;;35.45;;
53618;SDS011;68717;53.040;18.488;2024-03-02T00:58:26;68.78;;;35.25;;
53618;SDS011;68717;53.040;18.488;2024-03-02T00:58:39;69.88;;;35.67;;
53618;SDS011;68717;53.040;18.488;2024-03-02T00:58:53;65.68;;;34.75;;
53618;SDS011;68717;53.040;18.488;2024-03-02T00:59:06;65.28;;;34.15;;
53618;SDS011;68717;53.040;18.488;2024-03-02T00:59:20;68.53;;;34.88;;
53618;SDS011;68717;53.040;18.488;2024-03-02T00:59:34;66.72;;;35.20;;
53618;SDS011;68717;53.040;18.488;2024-03-02T00:59:47;65.57;;;34.92;;
53618;SDS011;68717;53.040;18.488;2024-03-02T01:00:01;67.05;;;35.55;;
53618;SDS011;68717;53.040;18.488;2024-03-02T01:00:14;66.40;;;35.40;;
53618;SDS011;68717;53.040;18.488;2024-03-02T01:00:30;63.78;;;34.28;;
53618;SDS011;68717;53.040;18.488;2024-03-02T01:00:44;63.20;;;33.90;;
53618;SDS011;68717;53.040;18.488;2024-03-02T01:00:57;66.18;;;34.42;;
53618;SDS011;68717;53.040;18.488;2024-03-02T01:01:11;66.82;;;34.63;;
53618;SDS011;68717;53.040;18.488;2024-03-02T01:01:24;68.43;;;35.60;;
53618;SDS011;68717;53.040;18.488;2024-03-02T01:01:37;65.32;;;35.30;;
53618;SDS011;68717;53.040;18.488;2024-03-02T01:01:50;63.55;;;34.95;;
53618;SDS011;68717;53.040;18.488;2024-03-02T01:02:06;63.95;;;34.42;;
53618;SDS011;68717;53.040;18.488;2024-03-02T01:02:19;62.47;;;33.90;;
53618;SDS011;68717;53.040;18.488;2024-03-02T01:02:32;64.95;;;34.33;;
53618;SDS011;68717;53.040;18.488;2024-03-02T01:02:45;63.53;;;34.22;;
53618;SDS011;68717;53.040;18.488;2024-03-02T01:02:58;63.85;;;34.47;;
53618;SDS011;68717;53.040;18.488;2024-03-02T01:03:12;64.38;;;35.33;;
53618;SDS011;68717;53.040;18.488;2024-03-02T01:03:25;63.92;;;34.90;;
53618;SDS011;68717;53.040;18.488;2024-03-02T01:03:38;63.17;;;33.92;;
53618;SDS011;68717;53.040;18.488;2024-03-02T01:03:53;63.03;;;33.97;;
53618;SDS011;68717;53.040;18.488;2024-03-02T01:04:07;65.07;;;35.03;;
53618;SDS011;68717;53.040;18.488;2024-03-02T01:04:20;67.45;;;34.67;;
53618;SDS011;68717;53.040;18.488;2024-03-02T01:04:33;64.18;;;33.50;;
53618;SDS011;68717;53.040;18.488;2024-03-02T01:04:48;63.47;;;33.88;;
53618;SDS011;68717;53.040;18.488;2024-03-02T01:05:01;63.08;;;33.95;;
53618;SDS011;68717;53.040;18.488;2024-03-02T01:05:14;62.33;;;34.00;;
53618;SDS011;68717;53.040;18.488;2024-03-02T01:05:29;61.55;;;34.10;;
53618;SDS011;68717;53.040;18.488;2024-03-02T01:05:42;61.80;;;34.22;;
53618;SDS011;68717;53.040;18.488;2024-03-02T01:05:55;61.65;;;33.60;;
53618;SDS011;68717;53.040;18.488;2024-03-02T01:06:08;62.80;;;34.13;;
53618;SDS011;68717;53.040;18.488;2024-03-02T01:06:22;64.28;;;34.90;;
53618;SDS011;68717;53.040;18.488;2024-03-02T01:06:35;64.40;;;34.97;;
53618;SDS011;68717;53.040;18.488;2024-03-02T01:06:48;64.88;;;34.70;;
53618;SDS011;68717;53.040;18.488;2024-03-02T01:07:02;63.28;;;34.40;;
53618;SDS011;68717;53.040;18.488;2024-03-02T01:07:16;63.80;;;34.42;;
53618;SDS011;68717;53.040;18.488;2024-03-02T01:07:29;64.05;;;34.33;;
53618;SDS011;68717;53.040;18.488;2024-03-02T01:07:41;64.53;;;33.95;;
53618;SDS011;68717;53.040;18.488;2024-03-02T01:07:54;64.90;;;34.33;;
53618;SDS011;68717;53.040;18.488;2024-03-02T01:08:08;65.38;;;35.10;;
53618;SDS011;68717;53.040;18.488;2024-03-02T01:08:21;63.13;;;35.03;;
53618;SDS011;68717;53.040;18.488;2024-03-02T01:08:34;62.97;;;34.53;;
53618;SDS011;68717;53.040;18.488;2024-03-02T01:08:47;63.78;;;34.22;;
53618;SDS011;68717;53.040;18.488;2024-03-02T01:09:04;61.90;;;33.60;;
53618;SDS011;68717;53.040;18.488;2024-03-02T01:09:18;60.13;;;33.83;;
53618;SDS011;68717;53.040;18.488;2024-03-02T01:09:32;60.55;;;33.85;;
53618;SDS011;68717;53.040;18.488;2024-03-02T01:09:45;62.03;;;33.45;;
53618;SDS011;68717;53.040;18.488;2024-03-02T01:09:58;64.28;;;33.75;;
53618;SDS011;68717;53.040;18.488;2024-03-02T01:10:11;62.80;;;33.90;;
53618;SDS011;68717;53.040;18.488;2024-03-02T01:10:24;61.28;;;33.53;;
53618;SDS011;68717;53.040;18.488;2024-03-02T01:10:38;62.65;;;33.67;;
53618;SDS011;68717;53.040;18.488;2024-03-02T01:10:51;62.38;;;34.47;;
53618;SDS011;68717;53.040;18.488;2024-03-02T01:11:04;62.45;;;34.53;;
53618;SDS011;68717;53.040;18.488;2024-03-02T01:11:17;59.90;;;33.53;;
53618;SDS011;68717;53.040;18.488;2024-03-02T01:11:35;61.65;;;33.65;;
53618;SDS011;68717;53.040;18.488;2024-03-02T01:11:48;67.13;;;34.00;;
53618;SDS011;68717;53.040;18.488;2024-03-02T01:12:01;64.97;;;33.85;;
53618;SDS011;68717;53.040;18.488;2024-03-02T01:12:15;62.70;;;33.50;;
53618;SDS011;68717;53.040;18.488;2024-03-02T01:12:28;62.83;;;33.33;;
53618;SDS011;68717;53.040;18.488;2024-03-02T01:12:41;62.33;;;33.53;;
53618;SDS011;68717;53.040;18.488;2024-03-02T01:12:54;60.88;;;33.88;;
53618;SDS011;68717;53.040;18.488;2024-03-02T01:13:07;61.65;;;33.67;;
53618;SDS011;68717;53.040;18.488;2024-03-02T01:13:21;63.15;;;33.58;;
53618;SDS011;68717;53.040;18.488;2024-03-02T01:13:35;63.85;;;33.60;;
53618;SDS011;68717;53.040;18.488;2024-03-02T01:13:49;61.95;;;33.63;;
53618;SDS011;68717;53.040;18.488;2024-03-02T01:14:02;65.30;;;33.88;;
53618;SDS011;68717;53.040;18.488;2024-03-02T01:14:15;63.78;;;33.15;;
53618;SDS011;68717;53.040;18.488;2024-03-02T01:14:28;61.83;;;33.17;;
53618;SDS011;68717;53.040;18.488;2024-03-02T01:14:41;63.30;;;33.58;;
53618;SDS011;68717;53.040;18.488;2024-03-02T01:14:54;62.35;;;32.83;;
53618;SDS011;68717;53.040;18.488;2024-03-02T01:15:08;60.78;;;32.67;;
53618;SDS011;68717;53.040;18.488;2024-03-02T01:15:21;62.50;;;33.28;;
53618;SDS011;68717;53.040;18.488;2024-03-02T01:15:36;62.45;;;32.85;;
53618;SDS011;68717;53.040;18.488;2024-03-02T01:15:49;60.50;;;32.58;;
53618;SDS011;68717;53.040;18.488;2024-03-02T01:16:02;59.33;;;32.70;;
53618;SDS011;68717;53.040;18.488;2024-03-02T01:16:16;58.67;;;32.97;;
53618;SDS011;68717;53.040;18.488;2024-03-02T01:16:29;60.38;;;33.05;;
53618;SDS011;68717;53.040;18.488;2024-03-02T01:16:42;59.67;;;32.63;;
53618;SDS011;68717;53.040;18.488;2024-03-02T01:16:56;61.13;;;33.00;;
53618;SDS011;68717;53.040;18.488;2024-03-02T01:17:10;61.13;;;33.10;;
53618;SDS011;68717;53.040;18.488;2024-03-02T01:17:23;62.17;;;33.13;;
53618;SDS011;68717;53.040;18.488;2024-03-02T01:17:36;59.88;;;32.38;;
53618;SDS011;68717;53.040;18.488;2024-03-02T01:17:50;61.80;;;32.85;;
53618;SDS011;68717;53.040;18.488;2024-03-02T01:18:06;62.20;;;33.17;;
53618;SDS011;68717;53.040;18.488;2024-03-02T01:18:20;60.60;;;32.67;;
53618;SDS011;68717;53.040;18.488;2024-03-02T01:18:34;62.60;;;32.47;;
53618;SDS011;68717;53.040;18.488;2024-03-02T01:18:47;61.42;;;32.63;;
53618;SDS011;68717;53.040;18.488;2024-03-02T01:19:02;61.08;;;33.15;;
53618;SDS011;68717;53.040;18.488;2024-03-02T01:19:16;62.45;;;32.78;;
53618;SDS011;68717;53.040;18.488;2024-03-02T01:19:29;61.45;;;32.30;;
53618;SDS011;68717;53.040;18.488;2024-03-02T01:19:42;58.38;;;32.08;;
53618;SDS011;68717;53.040;18.488;2024-03-02T01:19:58;58.45;;;32.55;;
53618;SDS011;68717;53.040;18.488;2024-03-02T01:20:11;58.85;;;32.95;;
53618;SDS011;68717;53.040;18.488;2024-03-02T01:20:24;59.30;;;32.58;;
53618;SDS011;68717;53.040;18.488;2024-03-02T01:20:37;59.15;;;32.33;;
53618;SDS011;68717;53.040;18.488;2024-03-02T01:20:50;59.25;;;32.33;;
53618;SDS011;68717;53.040;18.488;2024-03-02T01:21:05;59.10;;;32.15;;
53618;SDS011;68717;53.040;18.488;2024-03-02T01:21:18;60.78;;;32.45;;
53618;SDS011;68717;53.040;18.488;2024-03-02T01:21:31;60.42;;;32.10;;
53618;SDS011;68717;53.040;18.488;2024-03-02T01:21:44;60.20;;;32.03;;
53618;SDS011;68717;53.040;18.488;2024-03-02T01:21:57;60.85;;;32.70;;
53618;SDS011;68717;53.040;18.488;2024-03-02T01:22:10;60.13;;;32.38;;
53618;SDS011;68717;53.040;18.488;2024-03-02T01:22:24;58.30;;;32.30;;
53618;SDS011;68717;53.040;18.488;2024-03-02T01:22:37;58.72;;;33.13;;
53618;SDS011;68717;53.040;18.488;2024-03-02T01:22:50;59.97;;;33.05;;
53618;SDS011;68717;53.040;18.488;2024-03-02T01:23:04;58.42;;;31.85;;
53618;SDS011;68717;53.040;18.488;2024-03-02T01:23:17;58.28;;;31.67;;
53618;SDS011;68717;53.040;18.488;2024-03-02T01:23:32;59.50;;;31.88;;
53618;SDS011;68717;53.040;18.488;2024-03-02T01:23:45;57.78;;;31.50;;
53618;SDS011;68717;53.040;18.488;2024-03-02T01:23:58;56.30;;;31.30;;
53618;SDS011;68717;53.040;18.488;2024-03-02T01:24:11;58.78;;;32.03;;